createdAt,value
2022-11-27T00:01:26.102Z,76.67
2022-11-27T00:03:53.944Z,76.57
2022-11-27T00:06:22.869Z,70.40
2022-11-27T00:08:51.881Z,69.50
2022-11-27T00:11:23.101Z,70.80
2022-11-27T00:13:52.323Z,64.43
2022-11-27T00:16:19.942Z,64.50
2022-11-27T00:18:46.948Z,67.77
2022-11-27T00:21:26.680Z,67.20
2022-11-27T00:23:54.002Z,79.20
2022-11-27T00:26:23.194Z,71.50
2022-11-27T00:28:54.495Z,67.40
2022-11-27T00:31:27.192Z,71.80
2022-11-27T00:34:00.400Z,79.60
2022-11-27T00:36:28.011Z,71.37
2022-11-27T00:38:54.714Z,76.73
2022-11-27T00:41:23.201Z,73.23
2022-11-27T00:43:52.516Z,74.43
2022-11-27T00:46:28.332Z,72.60
2022-11-27T00:48:56.364Z,74.17
2022-11-27T00:51:23.355Z,75.03
2022-11-27T00:53:50.079Z,80.33
2022-11-27T00:56:20.886Z,71.00
2022-11-27T00:58:47.704Z,71.30
2022-11-27T01:01:22.433Z,80.00
2022-11-27T01:03:49.242Z,81.60
2022-11-27T01:06:19.234Z,79.47
2022-11-27T01:08:48.803Z,81.27
2022-11-27T01:11:17.363Z,88.47
2022-11-27T01:13:44.294Z,78.70
2022-11-27T01:16:13.308Z,83.10
2022-11-27T01:18:43.342Z,87.20
2022-11-27T01:21:10.431Z,79.20
2022-11-27T01:23:37.199Z,85.27
2022-11-27T01:26:06.099Z,88.97
2022-11-27T01:28:33.331Z,92.00
2022-11-27T01:31:04.968Z,100.27
2022-11-27T01:33:31.758Z,84.97
2022-11-27T01:36:02.518Z,90.13
2022-11-27T01:38:32.422Z,85.27
2022-11-27T01:41:00.464Z,86.53
2022-11-27T01:43:42.330Z,89.60
2022-11-27T01:46:42.687Z,92.90
2022-11-27T01:49:12.470Z,93.47
2022-11-27T01:52:11.568Z,97.07
2022-11-27T01:54:47.364Z,101.23
2022-11-27T01:57:17.065Z,89.23
2022-11-27T01:59:43.999Z,90.27
2022-11-27T02:02:10.809Z,89.73
2022-11-27T02:04:37.753Z,93.07
2022-11-27T02:07:04.597Z,97.13
2022-11-27T02:09:31.383Z,89.07
2022-11-27T02:12:25.151Z,96.83
2022-11-27T02:15:03.264Z,96.97
2022-11-27T02:17:45.162Z,97.93
2022-11-27T02:20:59.119Z,94.93
2022-11-27T02:23:55.602Z,101.47
2022-11-27T02:26:42.931Z,97.10
2022-11-27T02:29:12.710Z,101.83
2022-11-27T02:32:01.038Z,96.47
2022-11-27T02:34:28.491Z,104.20
2022-11-27T02:37:00.662Z,104.90
2022-11-27T02:39:32.413Z,96.57
2022-11-27T02:42:11.882Z,101.30
2022-11-27T02:44:41.880Z,97.47
2022-11-27T02:47:08.785Z,101.83
2022-11-27T02:49:36.146Z,90.37
2022-11-27T02:52:05.014Z,97.37
2022-11-27T02:54:33.941Z,98.93
2022-11-27T02:57:04.517Z,109.73
2022-11-27T02:59:31.744Z,101.20
2022-11-27T03:02:01.941Z,102.17
2022-11-27T03:04:34.553Z,101.07
2022-11-27T03:07:06.921Z,101.53
2022-11-27T03:09:40.347Z,108.73
2022-11-27T03:12:09.718Z,98.47
2022-11-27T03:14:38.893Z,103.50
2022-11-27T03:17:11.152Z,104.70
2022-11-27T03:19:46.116Z,102.97
2022-11-27T03:22:12.843Z,107.57
2022-11-27T03:24:41.977Z,97.40
2022-11-27T03:27:11.390Z,109.53
2022-11-27T03:29:58.885Z,104.67
2022-11-27T03:32:26.542Z,97.07
2022-11-27T03:34:55.790Z,102.53
2022-11-27T03:37:22.667Z,104.67
2022-11-27T03:39:49.626Z,114.80
2022-11-27T03:42:31.883Z,110.17
2022-11-27T03:45:08.619Z,115.40
2022-11-27T03:47:48.831Z,115.37
2022-11-27T03:50:42.424Z,116.37
2022-11-27T03:53:27.948Z,120.13
2022-11-27T03:56:37.578Z,121.03
2022-11-27T03:59:20.624Z,113.10
2022-11-27T04:01:47.651Z,124.03
2022-11-27T04:04:14.597Z,118.93
2022-11-27T04:06:41.388Z,117.83
2022-11-27T04:09:12.777Z,117.70
2022-11-27T04:11:39.469Z,126.30
2022-11-27T04:14:08.221Z,111.97
2022-11-27T04:16:37.143Z,114.20
2022-11-27T04:19:04.278Z,121.87
2022-11-27T04:21:33.456Z,129.90
2022-11-27T04:24:02.625Z,121.13
2022-11-27T04:26:31.489Z,120.07
2022-11-27T04:28:58.175Z,123.70
2022-11-27T04:31:24.981Z,127.47
2022-11-27T04:33:51.726Z,124.07
2022-11-27T04:36:18.445Z,110.90
2022-11-27T04:38:47.932Z,119.70
2022-11-27T04:41:14.640Z,110.03
2022-11-27T04:43:41.371Z,109.50
2022-11-27T04:46:08.132Z,114.03
2022-11-27T04:48:34.905Z,102.73
2022-11-27T04:51:01.640Z,106.87
2022-11-27T04:53:28.333Z,105.87
2022-11-27T04:55:57.296Z,109.07
2022-11-27T04:58:26.568Z,92.83
2022-11-27T05:00:53.399Z,104.43
2022-11-27T05:03:20.247Z,106.17
2022-11-27T05:05:56.678Z,102.43
2022-11-27T05:08:24.256Z,98.07
2022-11-27T05:11:03.834Z,95.03
2022-11-27T05:13:30.747Z,99.27
2022-11-27T05:15:59.815Z,96.30
2022-11-27T05:18:26.602Z,101.03
2022-11-27T05:21:17.411Z,97.17
2022-11-27T05:23:44.110Z,98.93
2022-11-27T05:26:13.142Z,98.90
2022-11-27T05:28:42.001Z,95.67
2022-11-27T05:31:09.114Z,93.00
2022-11-27T05:33:35.866Z,98.87
2022-11-27T05:36:02.554Z,98.13
2022-11-27T05:38:29.277Z,103.87
2022-11-27T05:40:55.963Z,103.10
2022-11-27T05:43:27.403Z,97.60
2022-11-27T05:45:54.108Z,92.17
2022-11-27T05:48:23.002Z,99.43
2022-11-27T05:50:49.737Z,105.43
2022-11-27T05:53:16.424Z,108.10
2022-11-27T05:55:43.186Z,94.70
2022-11-27T05:58:09.899Z,104.07
2022-11-27T06:00:36.667Z,104.80
2022-11-27T06:03:07.819Z,103.53
2022-11-27T06:05:38.118Z,108.73
2022-11-27T06:08:04.848Z,111.53
2022-11-27T06:10:31.529Z,103.97
2022-11-27T06:12:58.233Z,114.30
2022-11-27T06:15:24.998Z,122.00
2022-11-27T06:17:51.768Z,123.90
2022-11-27T06:20:20.300Z,111.63
2022-11-27T06:22:47.108Z,125.40
2022-11-27T06:25:18.526Z,134.57
2022-11-27T06:27:47.442Z,129.43
2022-11-27T06:30:14.367Z,128.50
2022-11-27T06:32:43.590Z,136.53
2022-11-27T06:35:12.680Z,130.50
2022-11-27T06:37:44.273Z,145.43
2022-11-27T06:40:13.559Z,130.97
2022-11-27T06:42:40.282Z,129.00
2022-11-27T06:45:07.572Z,122.97
2022-11-27T06:47:34.290Z,119.53
2022-11-27T06:50:01.021Z,118.97
2022-11-27T06:52:35.885Z,116.13
2022-11-27T06:55:07.173Z,114.07
2022-11-27T06:57:33.910Z,125.93
2022-11-27T07:00:00.598Z,122.33
2022-11-27T07:02:27.389Z,127.33
2022-11-27T07:04:54.224Z,123.40
2022-11-27T07:07:21.018Z,109.27
2022-11-27T07:09:47.813Z,118.57
2022-11-27T07:12:16.688Z,118.57
2022-11-27T07:14:43.482Z,110.93
2022-11-27T07:17:12.648Z,100.60
2022-11-27T07:19:41.613Z,116.97
2022-11-27T07:22:10.938Z,106.83
2022-11-27T07:24:40.122Z,105.70
2022-11-27T07:27:07.177Z,90.90
2022-11-27T07:29:33.883Z,104.70
2022-11-27T07:32:00.651Z,93.60
2022-11-27T07:34:29.835Z,103.43
2022-11-27T07:36:58.997Z,92.93
2022-11-27T07:39:46.626Z,95.40
2022-11-27T07:42:36.874Z,100.93
2022-11-27T07:45:01.389Z,103.20
2022-11-27T07:47:31.820Z,99.30
2022-11-27T07:50:00.395Z,88.87
2022-11-27T07:52:27.433Z,97.63
2022-11-27T07:54:56.414Z,101.33
2022-11-27T07:57:23.102Z,100.80
2022-11-27T07:59:49.826Z,101.20
2022-11-27T08:02:16.645Z,94.43
2022-11-27T08:04:43.835Z,103.33
2022-11-27T08:07:10.924Z,97.63
2022-11-27T08:09:38.067Z,98.03
2022-11-27T08:12:05.024Z,99.80
2022-11-27T08:14:31.729Z,97.90
2022-11-27T08:16:58.461Z,106.20
2022-11-27T08:19:25.241Z,105.70
2022-11-27T08:21:54.193Z,102.97
2022-11-27T08:24:20.892Z,98.73
2022-11-27T08:26:47.582Z,101.43
2022-11-27T08:29:16.569Z,99.43
2022-11-27T08:31:43.338Z,108.70
2022-11-27T08:34:12.512Z,106.57
2022-11-27T08:36:39.197Z,104.47
2022-11-27T08:39:06.168Z,106.77
2022-11-27T08:41:32.933Z,102.00
2022-11-27T08:44:04.481Z,101.00
2022-11-27T08:46:33.482Z,99.43
2022-11-27T08:49:02.437Z,104.70
2022-11-27T08:51:31.317Z,112.07
2022-11-27T08:53:58.045Z,105.27
2022-11-27T08:56:27.405Z,110.73
2022-11-27T08:58:54.122Z,103.80
2022-11-27T09:01:31.171Z,98.20
2022-11-27T09:04:00.097Z,101.20
2022-11-27T09:06:33.276Z,95.37
2022-11-27T09:09:00.732Z,106.63
2022-11-27T09:11:27.955Z,103.43
2022-11-27T09:13:56.948Z,95.03
2022-11-27T09:16:23.673Z,105.40
2022-11-27T09:18:54.215Z,105.30
2022-11-27T09:21:22.189Z,98.83
2022-11-27T09:23:54.141Z,99.93
2022-11-27T09:26:20.946Z,100.40
2022-11-27T09:28:47.948Z,92.83
2022-11-27T09:31:15.094Z,92.77
2022-11-27T09:33:44.507Z,94.53
2022-11-27T09:36:24.725Z,96.07
2022-11-27T09:38:51.776Z,95.60
2022-11-27T09:41:43.568Z,93.37
2022-11-27T09:44:18.176Z,93.80
2022-11-27T09:46:45.374Z,96.63
2022-11-27T09:49:20.050Z,96.63
2022-11-27T09:52:11.917Z,97.63
2022-11-27T09:55:03.282Z,99.63
2022-11-27T09:57:33.102Z,97.03
2022-11-27T10:00:28.016Z,94.03
2022-11-27T10:02:54.849Z,98.70
2022-11-27T10:05:31.080Z,98.70
2022-11-27T10:08:08.088Z,95.33
2022-11-27T10:10:57.084Z,98.30
2022-11-27T10:13:50.257Z,98.27
2022-11-27T10:16:28.879Z,98.37
2022-11-27T10:19:14.722Z,94.60
2022-11-27T10:21:47.134Z,94.17
2022-11-27T10:24:16.668Z,100.50
2022-11-27T10:26:47.741Z,98.50
2022-11-27T10:29:33.203Z,104.13
2022-11-27T10:32:05.446Z,95.93
2022-11-27T10:34:32.264Z,95.23
2022-11-27T10:36:59.008Z,97.07
2022-11-27T10:39:32.443Z,96.80
2022-11-27T10:42:10.296Z,92.67
2022-11-27T10:44:45.072Z,103.63
2022-11-27T10:47:14.651Z,100.03
2022-11-27T10:49:41.884Z,100.67
2022-11-27T10:52:16.123Z,94.33
2022-11-27T10:54:45.280Z,91.13
2022-11-27T10:57:33.926Z,89.73
2022-11-27T11:00:20.448Z,89.90
2022-11-27T11:02:47.308Z,89.20
2022-11-27T11:05:37.717Z,104.57
2022-11-27T11:08:18.110Z,84.60
2022-11-27T11:10:51.788Z,94.10
2022-11-27T11:13:27.321Z,97.63
2022-11-27T11:15:56.233Z,85.87
2022-11-27T11:18:46.510Z,88.30
2022-11-27T11:21:15.744Z,93.33
2022-11-27T11:23:42.534Z,87.93
2022-11-27T11:26:21.682Z,83.03
2022-11-27T11:28:53.354Z,87.03
2022-11-27T11:31:29.025Z,87.17
2022-11-27T11:34:02.348Z,83.47
2022-11-27T11:36:29.150Z,86.17
2022-11-27T11:38:58.045Z,84.33
2022-11-27T11:41:26.959Z,81.97
2022-11-27T11:43:58.759Z,86.93
2022-11-27T11:46:28.646Z,88.03
2022-11-27T11:49:18.520Z,86.13
2022-11-27T11:52:16.684Z,82.13
2022-11-27T11:54:49.603Z,86.77
2022-11-27T11:57:38.844Z,82.07
2022-11-27T12:00:10.884Z,85.93
2022-11-27T12:02:45.869Z,79.77
2022-11-27T12:05:27.762Z,81.50
2022-11-27T12:08:22.598Z,81.83
2022-11-27T12:11:03.988Z,86.37
2022-11-27T12:13:33.479Z,82.73
2022-11-27T12:16:07.642Z,82.47
2022-11-27T12:19:01.569Z,82.23
2022-11-27T12:21:53.659Z,83.63
2022-11-27T12:24:44.729Z,84.33
2022-11-27T12:27:29.149Z,87.40
2022-11-27T12:30:12.198Z,85.30
2022-11-27T12:33:12.348Z,78.53
2022-11-27T12:35:48.210Z,82.40
2022-11-27T12:38:28.076Z,79.23
2022-11-27T12:41:13.735Z,74.33
2022-11-27T12:43:52.067Z,79.03
2022-11-27T12:46:24.150Z,80.57
2022-11-27T12:49:00.166Z,75.47
2022-11-27T12:51:34.476Z,76.07
2022-11-27T12:54:05.898Z,80.90
2022-11-27T12:56:36.648Z,73.63
2022-11-27T12:59:19.166Z,78.30
2022-11-27T13:01:50.122Z,79.47
2022-11-27T13:04:20.105Z,72.97
2022-11-27T13:07:10.994Z,75.43
2022-11-27T13:09:57.012Z,71.83
2022-11-27T13:12:32.910Z,73.53
2022-11-27T13:15:05.706Z,76.87
2022-11-27T13:17:41.283Z,72.17
2022-11-27T13:20:19.661Z,77.83
2022-11-27T13:22:46.343Z,73.10
2022-11-27T13:25:18.367Z,68.47
2022-11-27T13:27:46.664Z,71.53
2022-11-27T13:30:22.342Z,73.63
2022-11-27T13:32:51.290Z,73.87
2022-11-27T13:35:39.983Z,73.73
2022-11-27T13:38:22.341Z,70.13
2022-11-27T13:40:56.008Z,70.27
2022-11-27T13:43:32.559Z,71.43
2022-11-27T13:46:11.971Z,65.47
2022-11-27T13:48:42.356Z,66.03
2022-11-27T13:51:10.124Z,66.77
2022-11-27T13:53:38.702Z,68.03
2022-11-27T13:56:06.049Z,63.97
2022-11-27T13:58:39.383Z,75.47
2022-11-27T14:01:16.640Z,72.07
2022-11-27T14:03:43.459Z,66.77
2022-11-27T14:06:20.846Z,66.87
2022-11-27T14:09:01.491Z,69.40
2022-11-27T14:11:42.994Z,75.97
2022-11-27T14:14:21.379Z,71.73
2022-11-27T14:17:04.913Z,68.73
2022-11-27T14:19:34.729Z,72.97
2022-11-27T14:22:02.305Z,68.83
2022-11-27T14:24:41.612Z,72.80
2022-11-27T14:27:18.381Z,72.60
2022-11-27T14:29:47.275Z,67.97
2022-11-27T14:32:17.563Z,66.53
2022-11-27T14:34:44.469Z,69.40
2022-11-27T14:37:29.930Z,66.20
2022-11-27T14:39:56.676Z,66.50
2022-11-27T14:42:29.499Z,67.97
2022-11-27T14:45:05.263Z,68.23
2022-11-27T14:47:31.957Z,68.63
2022-11-27T14:49:58.641Z,69.33
2022-11-27T14:52:25.401Z,69.50
2022-11-27T14:54:52.148Z,67.97
2022-11-27T14:57:28.540Z,67.63
2022-11-27T15:00:14.982Z,68.33
2022-11-27T15:02:41.896Z,75.40
2022-11-27T15:05:20.053Z,71.37
2022-11-27T15:07:53.197Z,71.93
2022-11-27T15:10:35.928Z,67.37
2022-11-27T15:13:03.267Z,70.87
2022-11-27T15:15:39.836Z,76.27
2022-11-27T15:18:09.193Z,65.43
2022-11-27T15:20:43.537Z,74.33
2022-11-27T15:23:32.206Z,81.10
2022-11-27T15:26:02.133Z,68.57
2022-11-27T15:28:37.023Z,71.30
2022-11-27T15:31:25.027Z,70.37
2022-11-27T15:34:01.781Z,77.20
2022-11-27T15:36:34.843Z,76.23
2022-11-27T15:39:24.758Z,71.93
2022-11-27T15:42:01.653Z,74.93
2022-11-27T15:44:32.831Z,67.60
2022-11-27T15:47:03.237Z,64.87
2022-11-27T15:49:30.044Z,73.57
2022-11-27T15:51:57.049Z,79.97
2022-11-27T15:54:24.239Z,69.43
2022-11-27T15:56:51.114Z,72.13
2022-11-27T15:59:20.481Z,77.07
2022-11-27T16:01:52.737Z,76.53
2022-11-27T16:04:19.576Z,72.43
2022-11-27T16:06:46.352Z,64.83
2022-11-27T16:09:13.177Z,75.23
2022-11-27T16:11:40.002Z,71.37
2022-11-27T16:14:08.919Z,71.50
2022-11-27T16:16:35.823Z,75.83
2022-11-27T16:19:03.951Z,74.17
2022-11-27T16:21:35.607Z,74.03
2022-11-27T16:24:04.156Z,74.73
2022-11-27T16:26:31.109Z,75.27
2022-11-27T16:28:58.100Z,83.33
2022-11-27T16:31:27.154Z,81.27
2022-11-27T16:33:54.102Z,76.60
2022-11-27T16:36:22.891Z,78.33
2022-11-27T16:38:51.221Z,77.70
2022-11-27T16:41:18.480Z,78.80
2022-11-27T16:43:49.115Z,75.90
2022-11-27T16:46:18.179Z,73.03
2022-11-27T16:48:45.210Z,79.70
2022-11-27T16:51:19.639Z,73.83
2022-11-27T16:53:47.429Z,83.00
2022-11-27T16:56:16.031Z,83.23
2022-11-27T16:58:45.916Z,82.63
2022-11-27T17:01:17.875Z,75.93
2022-11-27T17:03:44.668Z,74.40
2022-11-27T17:06:15.446Z,83.10
2022-11-27T17:08:44.382Z,80.40
2022-11-27T17:11:18.107Z,82.17
2022-11-27T17:13:45.647Z,81.77
2022-11-27T17:16:12.424Z,80.97
2022-11-27T17:18:40.071Z,78.73
2022-11-27T17:21:29.239Z,84.97
2022-11-27T17:24:03.862Z,87.73
2022-11-27T17:26:42.236Z,81.70
2022-11-27T17:29:10.199Z,86.07
2022-11-27T17:31:42.003Z,89.27
2022-11-27T17:34:11.104Z,86.23
2022-11-27T17:36:42.141Z,84.10
2022-11-27T17:39:09.819Z,86.20
2022-11-27T17:41:36.665Z,83.13
2022-11-27T17:44:06.380Z,84.97
2022-11-27T17:46:36.959Z,85.57
2022-11-27T17:49:07.191Z,85.67
2022-11-27T17:51:38.552Z,85.53
2022-11-27T17:54:07.875Z,86.80
2022-11-27T17:56:34.707Z,87.87
2022-11-27T17:59:01.518Z,89.23
2022-11-27T18:01:29.376Z,92.17
2022-11-27T18:03:57.191Z,88.77
2022-11-27T18:06:29.977Z,87.97
2022-11-27T18:08:58.136Z,89.60
2022-11-27T18:11:26.662Z,93.97
2022-11-27T18:13:53.468Z,90.03
2022-11-27T18:16:25.318Z,90.17
2022-11-27T18:18:52.276Z,92.03
2022-11-27T18:21:20.016Z,89.30
2022-11-27T18:24:21.329Z,92.17
2022-11-27T18:27:00.393Z,92.47
2022-11-27T18:29:21.298Z,98.23
2022-11-27T18:31:51.114Z,98.10
2022-11-27T18:34:18.386Z,94.97
2022-11-27T18:36:45.946Z,96.93
2022-11-27T18:39:15.885Z,100.10
2022-11-27T18:41:45.241Z,99.73
2022-11-27T18:44:12.035Z,99.37
2022-11-27T18:46:41.490Z,95.40
2022-11-27T18:49:08.263Z,94.63
2022-11-27T18:51:35.018Z,99.33
2022-11-27T18:54:01.717Z,102.10
2022-11-27T18:56:34.007Z,102.57
2022-11-27T18:59:07.038Z,101.20
2022-11-27T19:01:39.917Z,99.00
2022-11-27T19:04:11.206Z,108.87
2022-11-27T19:06:38.822Z,106.60
2022-11-27T19:09:05.693Z,97.67
2022-11-27T19:11:33.996Z,102.63
2022-11-27T19:14:00.993Z,101.60
2022-11-27T19:16:42.023Z,98.97
2022-11-27T19:19:49.314Z,99.30
2022-11-27T19:21:58.650Z,101.27
2022-11-27T19:24:25.370Z,99.47
2022-11-27T19:26:52.167Z,92.53
2022-11-27T19:29:21.199Z,102.50
2022-11-27T19:31:48.128Z,101.40
2022-11-27T19:34:14.946Z,99.20
2022-11-27T19:36:41.689Z,97.77
2022-11-27T19:39:14.103Z,101.70
2022-11-27T19:41:41.478Z,103.30
2022-11-27T19:44:08.247Z,100.60
2022-11-27T19:46:36.335Z,98.97
2022-11-27T19:49:04.961Z,99.13
2022-11-27T19:51:33.287Z,97.53
2022-11-27T19:54:08.399Z,96.30
2022-11-27T19:56:40.112Z,95.87
2022-11-27T19:59:07.221Z,96.20
2022-11-27T20:01:33.998Z,98.63
2022-11-27T20:04:02.060Z,95.10
2022-11-27T20:06:31.283Z,91.80
2022-11-27T20:09:04.089Z,93.27
2022-11-27T20:11:35.423Z,94.10
2022-11-27T20:14:04.143Z,94.63
2022-11-27T20:16:31.317Z,86.60
2022-11-27T20:18:58.159Z,89.77
2022-11-27T20:21:34.026Z,91.00
2022-11-27T20:24:05.887Z,93.57
2022-11-27T20:26:41.270Z,93.27
2022-11-27T20:29:11.860Z,95.40
2022-11-27T20:31:40.242Z,94.93
2022-11-27T20:34:10.857Z,94.80
2022-11-27T20:36:38.942Z,99.53
2022-11-27T20:39:08.285Z,107.37
2022-11-27T20:41:35.005Z,103.70
2022-11-27T20:44:04.841Z,100.53
2022-11-27T20:46:34.141Z,100.23
2022-11-27T20:49:03.240Z,110.13
2022-11-27T20:51:33.334Z,107.93
2022-11-27T20:54:01.728Z,103.07
2022-11-27T20:56:29.143Z,104.03
2022-11-27T20:59:00.806Z,102.70
2022-11-27T21:01:32.146Z,109.57
2022-11-27T21:04:00.394Z,108.37
2022-11-27T21:06:28.881Z,104.23
2022-11-27T21:08:55.716Z,109.90
2022-11-27T21:11:25.278Z,112.17
2022-11-27T21:13:56.249Z,110.73
2022-11-27T21:16:23.899Z,111.00
2022-11-27T21:18:54.540Z,114.63
2022-11-27T21:21:21.310Z,109.33
2022-11-27T21:23:50.243Z,101.03
2022-11-27T21:26:17.123Z,101.50
2022-11-27T21:28:44.152Z,115.27
2022-11-27T21:31:18.108Z,109.17
2022-11-27T21:33:58.113Z,108.63
2022-11-27T21:36:29.366Z,107.90
2022-11-27T21:38:57.518Z,109.90
2022-11-27T21:41:26.588Z,113.40
2022-11-27T21:43:57.923Z,110.73
2022-11-27T21:46:25.023Z,116.93
2022-11-27T21:48:52.935Z,133.23
2022-11-27T21:51:23.104Z,125.97
2022-11-27T21:53:51.456Z,131.33
2022-11-27T21:56:19.302Z,121.63
2022-11-27T21:58:46.317Z,119.10
2022-11-27T22:01:15.610Z,118.00
2022-11-27T22:03:43.124Z,114.03
2022-11-27T22:06:14.661Z,121.57
2022-11-27T22:08:42.527Z,121.67
2022-11-27T22:11:10.443Z,121.80
2022-11-27T22:13:37.158Z,106.67
2022-11-27T22:16:20.375Z,108.67
2022-11-27T22:18:49.553Z,123.13
2022-11-27T22:21:16.546Z,109.47
2022-11-27T22:23:43.247Z,111.87
2022-11-27T22:26:14.253Z,112.90
2022-11-27T22:28:41.164Z,118.57
2022-11-27T22:31:18.689Z,120.20
2022-11-27T22:33:45.847Z,115.83
2022-11-27T22:36:19.303Z,121.93
2022-11-27T22:38:46.711Z,114.93
2022-11-27T22:41:13.614Z,123.30
2022-11-27T22:43:40.464Z,112.63
2022-11-27T22:46:12.485Z,113.00
2022-11-27T22:48:39.231Z,115.33
2022-11-27T22:51:06.211Z,111.47
2022-11-27T22:53:35.411Z,119.13
2022-11-27T22:56:11.976Z,113.70
2022-11-27T22:58:42.028Z,116.03
2022-11-27T23:01:29.134Z,111.33
2022-11-27T23:03:55.937Z,115.50
2022-11-27T23:06:25.400Z,113.43
2022-11-27T23:08:54.645Z,115.33
2022-11-27T23:11:24.014Z,114.20
2022-11-27T23:13:51.654Z,111.97
2022-11-27T23:16:18.439Z,114.83
2022-11-27T23:18:45.478Z,114.13
2022-11-27T23:21:15.757Z,111.97
2022-11-27T23:23:45.479Z,116.97
2022-11-27T23:26:19.359Z,105.60
2022-11-27T23:28:49.319Z,108.70
2022-11-27T23:31:31.051Z,109.53
2022-11-27T23:33:58.902Z,118.87
2022-11-27T23:36:25.848Z,115.30
2022-11-27T23:38:52.603Z,110.63
2022-11-27T23:41:21.192Z,111.93
2022-11-27T23:43:50.371Z,107.80
2022-11-27T23:46:18.197Z,109.97
2022-11-27T23:48:45.045Z,120.20
2022-11-27T23:51:16.508Z,115.93
2022-11-27T23:53:45.431Z,112.37
2022-11-27T23:56:14.182Z,114.40
2022-11-27T23:58:46.914Z,112.43
